Decoded Metar for LIRZ (PERUGIA in ITALY) (IATA:PEG) | Meteo·Mobile Aviation Weather
aviador You're here:

LIRZ Decoded Metar

PERUGIA in ITALY
Report Time2020-02-27 00:19:00
UTC Time2020-02-27 00:44:05
Flight Rules vfr VFR
Wind330° at 06 kt
W.Decomp.*RWY 01: 4.5 kt HW 4 kt LCW
Visibility9999 m
Phenomena:Light Rain
Clouds:Overcast 038 Hf
Expected CloudBase > 1,600 ft AGL from Temp-Dew spread
Ceiling3,800 ft
Temp05°C (ISA -9)
Dew Point01°C (76% RH)
AAT1.0°C
QNH1008 hPa
Density Alt-108 ft
Elevation673 ft
Report Wrong Elevation
Raw Report
SPECI LIRZ 270019Z AUTO 33006KT 270V050 9999 -RA OVC038/// 05/01 Q1008=

Extra information for LIRZ:More info

Metar Taf Metar & Taf Last 4 Metars F.Rules Stats Wind Profile Meteogram Temp Stats Airport Information Weather charts Add Link Nearby VenuesMetar ALERT Operation Metar Decoded Social comments